sensor_id;sensor_type;location;lat;lon;timestamp;P1;durP1;ratioP1;P2;durP2;ratioP2
57331;SDS011;43164;50.908;18.092;2022-11-15T00:01:16;60.80;;;24.90;;
57331;SDS011;43164;50.908;18.092;2022-11-15T00:03:45;71.60;;;29.40;;
57331;SDS011;43164;50.908;18.092;2022-11-15T00:06:13;69.90;;;30.10;;
57331;SDS011;43164;50.908;18.092;2022-11-15T00:08:41;68.60;;;29.40;;
57331;SDS011;43164;50.908;18.092;2022-11-15T00:11:09;70.80;;;30.90;;
57331;SDS011;43164;50.908;18.092;2022-11-15T00:13:39;67.30;;;29.50;;
57331;SDS011;43164;50.908;18.092;2022-11-15T00:16:06;69.70;;;29.50;;
57331;SDS011;43164;50.908;18.092;2022-11-15T00:18:35;62.00;;;27.20;;
57331;SDS011;43164;50.908;18.092;2022-11-15T00:21:06;69.00;;;27.60;;
57331;SDS011;43164;50.908;18.092;2022-11-15T00:23:35;68.90;;;28.10;;
57331;SDS011;43164;50.908;18.092;2022-11-15T00:26:02;63.80;;;27.10;;
57331;SDS011;43164;50.908;18.092;2022-11-15T00:28:30;63.40;;;26.50;;
57331;SDS011;43164;50.908;18.092;2022-11-15T00:31:04;65.60;;;28.30;;
57331;SDS011;43164;50.908;18.092;2022-11-15T00:33:33;60.00;;;25.80;;
57331;SDS011;43164;50.908;18.092;2022-11-15T00:36:06;58.70;;;25.40;;
57331;SDS011;43164;50.908;18.092;2022-11-15T00:38:36;52.40;;;24.20;;
57331;SDS011;43164;50.908;18.092;2022-11-15T00:41:05;55.80;;;23.90;;
57331;SDS011;43164;50.908;18.092;2022-11-15T00:43:33;56.60;;;24.70;;
57331;SDS011;43164;50.908;18.092;2022-11-15T00:46:02;60.90;;;26.10;;
57331;SDS011;43164;50.908;18.092;2022-11-15T00:48:30;62.50;;;26.80;;
57331;SDS011;43164;50.908;18.092;2022-11-15T00:50:58;60.60;;;26.20;;
57331;SDS011;43164;50.908;18.092;2022-11-15T00:53:26;58.50;;;25.70;;
57331;SDS011;43164;50.908;18.092;2022-11-15T00:55:54;57.40;;;25.40;;
57331;SDS011;43164;50.908;18.092;2022-11-15T00:58:22;58.50;;;25.80;;
57331;SDS011;43164;50.908;18.092;2022-11-15T01:00:50;63.40;;;27.00;;
57331;SDS011;43164;50.908;18.092;2022-11-15T01:03:18;60.40;;;25.90;;
57331;SDS011;43164;50.908;18.092;2022-11-15T01:05:46;55.80;;;23.90;;
57331;SDS011;43164;50.908;18.092;2022-11-15T01:08:15;58.60;;;25.20;;
57331;SDS011;43164;50.908;18.092;2022-11-15T01:10:43;57.00;;;24.10;;
57331;SDS011;43164;50.908;18.092;2022-11-15T01:13:11;55.20;;;25.70;;
57331;SDS011;43164;50.908;18.092;2022-11-15T01:15:39;62.70;;;25.90;;
57331;SDS011;43164;50.908;18.092;2022-11-15T01:18:07;52.20;;;22.20;;
57331;SDS011;43164;50.908;18.092;2022-11-15T01:20:34;54.70;;;23.80;;
57331;SDS011;43164;50.908;18.092;2022-11-15T01:23:06;53.50;;;23.90;;
57331;SDS011;43164;50.908;18.092;2022-11-15T01:25:34;53.80;;;24.10;;
57331;SDS011;43164;50.908;18.092;2022-11-15T01:28:03;56.60;;;24.70;;
57331;SDS011;43164;50.908;18.092;2022-11-15T01:30:29;54.00;;;24.90;;
57331;SDS011;43164;50.908;18.092;2022-11-15T01:32:57;58.80;;;25.40;;
57331;SDS011;43164;50.908;18.092;2022-11-15T01:35:23;53.10;;;23.90;;
57331;SDS011;43164;50.908;18.092;2022-11-15T01:37:50;56.10;;;24.20;;
57331;SDS011;43164;50.908;18.092;2022-11-15T01:40:18;53.50;;;22.90;;
57331;SDS011;43164;50.908;18.092;2022-11-15T01:42:45;49.10;;;21.20;;
57331;SDS011;43164;50.908;18.092;2022-11-15T01:45:13;46.90;;;20.60;;
57331;SDS011;43164;50.908;18.092;2022-11-15T01:47:46;50.80;;;21.90;;
57331;SDS011;43164;50.908;18.092;2022-11-15T01:50:19;51.40;;;22.40;;
57331;SDS011;43164;50.908;18.092;2022-11-15T01:52:49;45.20;;;19.90;;
57331;SDS011;43164;50.908;18.092;2022-11-15T01:55:19;49.60;;;22.50;;
57331;SDS011;43164;50.908;18.092;2022-11-15T01:57:49;55.30;;;25.10;;
57331;SDS011;43164;50.908;18.092;2022-11-15T02:00:18;58.40;;;24.50;;
57331;SDS011;43164;50.908;18.092;2022-11-15T02:02:45;62.60;;;27.40;;
57331;SDS011;43164;50.908;18.092;2022-11-15T02:05:12;64.20;;;27.60;;
57331;SDS011;43164;50.908;18.092;2022-11-15T02:07:40;60.20;;;25.60;;
57331;SDS011;43164;50.908;18.092;2022-11-15T02:10:09;61.40;;;26.40;;
57331;SDS011;43164;50.908;18.092;2022-11-15T02:12:39;63.50;;;26.30;;
57331;SDS011;43164;50.908;18.092;2022-11-15T02:15:07;59.90;;;25.90;;
57331;SDS011;43164;50.908;18.092;2022-11-15T02:20:49;60.40;;;26.90;;
57331;SDS011;43164;50.908;18.092;2022-11-15T02:23:29;57.80;;;26.40;;
57331;SDS011;43164;50.908;18.092;2022-11-15T02:37:45;56.80;;;24.00;;
57331;SDS011;43164;50.908;18.092;2022-11-15T02:43:16;57.30;;;25.20;;
57331;SDS011;43164;50.908;18.092;2022-11-15T02:46:37;57.30;;;25.50;;
57331;SDS011;43164;50.908;18.092;2022-11-15T02:49:31;62.90;;;26.00;;
57331;SDS011;43164;50.908;18.092;2022-11-15T02:52:02;57.50;;;25.30;;
57331;SDS011;43164;50.908;18.092;2022-11-15T02:54:30;55.40;;;23.60;;
57331;SDS011;43164;50.908;18.092;2022-11-15T02:57:01;60.50;;;27.40;;
57331;SDS011;43164;50.908;18.092;2022-11-15T03:02:32;62.70;;;26.90;;
57331;SDS011;43164;50.908;18.092;2022-11-15T03:05:13;55.90;;;26.30;;
57331;SDS011;43164;50.908;18.092;2022-11-15T03:08:16;61.90;;;26.20;;
57331;SDS011;43164;50.908;18.092;2022-11-15T03:11:09;59.40;;;25.90;;
57331;SDS011;43164;50.908;18.092;2022-11-15T03:13:47;61.10;;;26.10;;
57331;SDS011;43164;50.908;18.092;2022-11-15T03:18:59;47.10;;;22.70;;
57331;SDS011;43164;50.908;18.092;2022-11-15T03:21:49;52.50;;;25.10;;
57331;SDS011;43164;50.908;18.092;2022-11-15T03:24:17;49.60;;;24.60;;
57331;SDS011;43164;50.908;18.092;2022-11-15T03:26:47;50.20;;;23.10;;
57331;SDS011;43164;50.908;18.092;2022-11-15T03:29:19;55.40;;;24.70;;
57331;SDS011;43164;50.908;18.092;2022-11-15T03:31:56;49.00;;;23.20;;
57331;SDS011;43164;50.908;18.092;2022-11-15T03:34:44;54.50;;;23.30;;
57331;SDS011;43164;50.908;18.092;2022-11-15T03:37:18;53.20;;;23.40;;
57331;SDS011;43164;50.908;18.092;2022-11-15T03:42:21;51.60;;;23.60;;
57331;SDS011;43164;50.908;18.092;2022-11-15T03:47:43;49.20;;;22.00;;
57331;SDS011;43164;50.908;18.092;2022-11-15T03:50:19;45.50;;;20.60;;
57331;SDS011;43164;50.908;18.092;2022-11-15T03:52:48;48.00;;;22.90;;
57331;SDS011;43164;50.908;18.092;2022-11-15T03:55:18;45.60;;;20.40;;
57331;SDS011;43164;50.908;18.092;2022-11-15T03:57:48;43.80;;;19.90;;
57331;SDS011;43164;50.908;18.092;2022-11-15T04:00:20;48.10;;;22.50;;
57331;SDS011;43164;50.908;18.092;2022-11-15T04:02:49;45.50;;;20.90;;
57331;SDS011;43164;50.908;18.092;2022-11-15T04:05:17;48.40;;;22.20;;
57331;SDS011;43164;50.908;18.092;2022-11-15T04:07:45;56.10;;;27.60;;
57331;SDS011;43164;50.908;18.092;2022-11-15T04:10:11;49.70;;;23.30;;
57331;SDS011;43164;50.908;18.092;2022-11-15T04:12:42;51.00;;;24.70;;
57331;SDS011;43164;50.908;18.092;2022-11-15T04:15:13;44.40;;;23.20;;
57331;SDS011;43164;50.908;18.092;2022-11-15T04:17:43;52.30;;;25.90;;
57331;SDS011;43164;50.908;18.092;2022-11-15T04:20:29;49.80;;;22.40;;
57331;SDS011;43164;50.908;18.092;2022-11-15T04:23:22;47.40;;;22.80;;
57331;SDS011;43164;50.908;18.092;2022-11-15T04:26:11;46.10;;;22.00;;
57331;SDS011;43164;50.908;18.092;2022-11-15T04:28:51;49.50;;;21.20;;
57331;SDS011;43164;50.908;18.092;2022-11-15T04:31:39;42.90;;;19.30;;
57331;SDS011;43164;50.908;18.092;2022-11-15T04:34:08;39.00;;;18.90;;
57331;SDS011;43164;50.908;18.092;2022-11-15T04:36:38;40.90;;;19.50;;
57331;SDS011;43164;50.908;18.092;2022-11-15T04:39:25;40.20;;;18.80;;
57331;SDS011;43164;50.908;18.092;2022-11-15T04:41:52;41.80;;;19.10;;
57331;SDS011;43164;50.908;18.092;2022-11-15T04:44:21;42.20;;;19.30;;
57331;SDS011;43164;50.908;18.092;2022-11-15T04:47:02;44.40;;;20.30;;
57331;SDS011;43164;50.908;18.092;2022-11-15T04:49:34;47.20;;;21.80;;
57331;SDS011;43164;50.908;18.092;2022-11-15T04:52:04;52.60;;;22.30;;
57331;SDS011;43164;50.908;18.092;2022-11-15T04:54:32;47.40;;;22.70;;
57331;SDS011;43164;50.908;18.092;2022-11-15T04:57:02;50.10;;;22.60;;
57331;SDS011;43164;50.908;18.092;2022-11-15T04:59:30;48.50;;;22.60;;
57331;SDS011;43164;50.908;18.092;2022-11-15T05:01:59;49.90;;;22.20;;
57331;SDS011;43164;50.908;18.092;2022-11-15T05:04:27;54.40;;;24.20;;
57331;SDS011;43164;50.908;18.092;2022-11-15T05:06:55;51.30;;;25.20;;
57331;SDS011;43164;50.908;18.092;2022-11-15T05:09:22;50.70;;;23.90;;
57331;SDS011;43164;50.908;18.092;2022-11-15T05:11:50;55.50;;;25.20;;
57331;SDS011;43164;50.908;18.092;2022-11-15T05:14:18;51.20;;;24.80;;
57331;SDS011;43164;50.908;18.092;2022-11-15T05:16:46;54.90;;;26.20;;
57331;SDS011;43164;50.908;18.092;2022-11-15T05:19:14;53.30;;;24.60;;
57331;SDS011;43164;50.908;18.092;2022-11-15T05:21:42;55.10;;;25.70;;
57331;SDS011;43164;50.908;18.092;2022-11-15T05:24:13;53.70;;;23.90;;
57331;SDS011;43164;50.908;18.092;2022-11-15T05:26:41;52.60;;;23.50;;
57331;SDS011;43164;50.908;18.092;2022-11-15T05:29:09;44.30;;;21.70;;
57331;SDS011;43164;50.908;18.092;2022-11-15T05:31:39;44.00;;;20.20;;
57331;SDS011;43164;50.908;18.092;2022-11-15T05:34:07;26.10;;;14.50;;
57331;SDS011;43164;50.908;18.092;2022-11-15T05:36:35;44.80;;;21.60;;
57331;SDS011;43164;50.908;18.092;2022-11-15T05:39:05;29.90;;;15.00;;
57331;SDS011;43164;50.908;18.092;2022-11-15T05:41:41;27.30;;;13.70;;
57331;SDS011;43164;50.908;18.092;2022-11-15T05:44:17;28.20;;;15.20;;
57331;SDS011;43164;50.908;18.092;2022-11-15T05:46:48;33.30;;;16.20;;
57331;SDS011;43164;50.908;18.092;2022-11-15T05:49:18;31.40;;;15.70;;
57331;SDS011;43164;50.908;18.092;2022-11-15T05:51:49;33.90;;;17.10;;
57331;SDS011;43164;50.908;18.092;2022-11-15T05:54:17;28.50;;;15.30;;
57331;SDS011;43164;50.908;18.092;2022-11-15T05:56:45;28.20;;;14.50;;
57331;SDS011;43164;50.908;18.092;2022-11-15T05:59:13;27.30;;;15.30;;
57331;SDS011;43164;50.908;18.092;2022-11-15T06:01:42;28.60;;;14.40;;
57331;SDS011;43164;50.908;18.092;2022-11-15T06:04:11;34.40;;;18.00;;
57331;SDS011;43164;50.908;18.092;2022-11-15T06:06:38;34.00;;;17.40;;
57331;SDS011;43164;50.908;18.092;2022-11-15T06:09:07;32.30;;;16.20;;
57331;SDS011;43164;50.908;18.092;2022-11-15T06:11:35;29.50;;;14.60;;
57331;SDS011;43164;50.908;18.092;2022-11-15T06:14:03;27.20;;;13.00;;
57331;SDS011;43164;50.908;18.092;2022-11-15T06:16:32;36.80;;;17.50;;
57331;SDS011;43164;50.908;18.092;2022-11-15T06:19:00;58.00;;;25.30;;
57331;SDS011;43164;50.908;18.092;2022-11-15T06:21:28;48.60;;;22.60;;
57331;SDS011;43164;50.908;18.092;2022-11-15T06:23:56;41.90;;;21.10;;
57331;SDS011;43164;50.908;18.092;2022-11-15T06:26:24;53.40;;;22.60;;
57331;SDS011;43164;50.908;18.092;2022-11-15T06:28:52;41.90;;;19.80;;
57331;SDS011;43164;50.908;18.092;2022-11-15T06:31:20;39.40;;;19.70;;
57331;SDS011;43164;50.908;18.092;2022-11-15T06:33:49;42.90;;;20.30;;
57331;SDS011;43164;50.908;18.092;2022-11-15T06:36:17;52.80;;;25.00;;
57331;SDS011;43164;50.908;18.092;2022-11-15T06:38:46;67.60;;;31.00;;
57331;SDS011;43164;50.908;18.092;2022-11-15T06:41:14;61.80;;;29.20;;
57331;SDS011;43164;50.908;18.092;2022-11-15T06:46:34;36.70;;;17.70;;
57331;SDS011;43164;50.908;18.092;2022-11-15T06:49:03;31.70;;;16.10;;
57331;SDS011;43164;50.908;18.092;2022-11-15T06:51:32;31.20;;;16.90;;
57331;SDS011;43164;50.908;18.092;2022-11-15T06:54:14;37.80;;;18.20;;
57331;SDS011;43164;50.908;18.092;2022-11-15T06:56:43;32.70;;;17.40;;
57331;SDS011;43164;50.908;18.092;2022-11-15T06:59:11;33.90;;;16.50;;
57331;SDS011;43164;50.908;18.092;2022-11-15T07:01:43;35.40;;;17.80;;
57331;SDS011;43164;50.908;18.092;2022-11-15T07:04:15;37.90;;;18.90;;
57331;SDS011;43164;50.908;18.092;2022-11-15T07:06:59;34.90;;;16.90;;
57331;SDS011;43164;50.908;18.092;2022-11-15T07:09:41;39.10;;;19.40;;
57331;SDS011;43164;50.908;18.092;2022-11-15T07:12:09;37.10;;;18.90;;
57331;SDS011;43164;50.908;18.092;2022-11-15T07:14:41;35.50;;;17.90;;
57331;SDS011;43164;50.908;18.092;2022-11-15T07:17:11;37.90;;;19.10;;
57331;SDS011;43164;50.908;18.092;2022-11-15T07:19:43;38.00;;;19.30;;
57331;SDS011;43164;50.908;18.092;2022-11-15T07:22:14;43.90;;;20.20;;
57331;SDS011;43164;50.908;18.092;2022-11-15T07:24:42;34.60;;;18.90;;
57331;SDS011;43164;50.908;18.092;2022-11-15T07:27:17;35.40;;;18.20;;
57331;SDS011;43164;50.908;18.092;2022-11-15T07:29:51;31.90;;;17.00;;
57331;SDS011;43164;50.908;18.092;2022-11-15T07:32:19;38.90;;;19.10;;
57331;SDS011;43164;50.908;18.092;2022-11-15T07:34:47;32.80;;;17.40;;
57331;SDS011;43164;50.908;18.092;2022-11-15T07:37:14;35.80;;;17.70;;
57331;SDS011;43164;50.908;18.092;2022-11-15T07:39:43;33.40;;;16.50;;
57331;SDS011;43164;50.908;18.092;2022-11-15T07:42:11;35.10;;;18.50;;
57331;SDS011;43164;50.908;18.092;2022-11-15T07:44:58;36.80;;;18.90;;
57331;SDS011;43164;50.908;18.092;2022-11-15T07:56:52;37.80;;;20.00;;
57331;SDS011;43164;50.908;18.092;2022-11-15T07:59:26;36.30;;;19.10;;
57331;SDS011;43164;50.908;18.092;2022-11-15T08:02:02;36.60;;;20.10;;
57331;SDS011;43164;50.908;18.092;2022-11-15T08:04:36;39.20;;;22.40;;
57331;SDS011;43164;50.908;18.092;2022-11-15T08:07:18;35.90;;;19.70;;
57331;SDS011;43164;50.908;18.092;2022-11-15T08:16:32;40.50;;;20.70;;
57331;SDS011;43164;50.908;18.092;2022-11-15T08:21:50;40.50;;;22.70;;
57331;SDS011;43164;50.908;18.092;2022-11-15T08:24:24;39.10;;;22.10;;
57331;SDS011;43164;50.908;18.092;2022-11-15T08:26:53;39.30;;;19.50;;
57331;SDS011;43164;50.908;18.092;2022-11-15T08:32:17;39.00;;;20.40;;
57331;SDS011;43164;50.908;18.092;2022-11-15T08:34:51;40.50;;;21.30;;
57331;SDS011;43164;50.908;18.092;2022-11-15T08:37:24;39.10;;;20.60;;
57331;SDS011;43164;50.908;18.092;2022-11-15T08:39:55;35.10;;;18.50;;
57331;SDS011;43164;50.908;18.092;2022-11-15T08:42:28;34.20;;;18.70;;
57331;SDS011;43164;50.908;18.092;2022-11-15T08:44:56;37.00;;;19.40;;
57331;SDS011;43164;50.908;18.092;2022-11-15T08:47:31;34.70;;;18.20;;
57331;SDS011;43164;50.908;18.092;2022-11-15T08:53:46;36.40;;;17.50;;
57331;SDS011;43164;50.908;18.092;2022-11-15T08:56:21;36.60;;;17.40;;
57331;SDS011;43164;50.908;18.092;2022-11-15T08:58:57;29.20;;;16.20;;
57331;SDS011;43164;50.908;18.092;2022-11-15T09:01:37;33.00;;;16.80;;
57331;SDS011;43164;50.908;18.092;2022-11-15T09:11:20;30.20;;;16.50;;
57331;SDS011;43164;50.908;18.092;2022-11-15T09:20:17;32.60;;;16.10;;
57331;SDS011;43164;50.908;18.092;2022-11-15T09:36:26;27.60;;;14.80;;
57331;SDS011;43164;50.908;18.092;2022-11-15T09:39:03;27.50;;;14.10;;
57331;SDS011;43164;50.908;18.092;2022-11-15T09:44:18;27.50;;;14.40;;
57331;SDS011;43164;50.908;18.092;2022-11-15T09:47:03;26.90;;;14.20;;
57331;SDS011;43164;50.908;18.092;2022-11-15T09:49:37;27.00;;;13.70;;
57331;SDS011;43164;50.908;18.092;2022-11-15T09:52:06;27.40;;;14.40;;
57331;SDS011;43164;50.908;18.092;2022-11-15T09:54:38;25.80;;;13.90;;
57331;SDS011;43164;50.908;18.092;2022-11-15T09:57:10;25.30;;;13.80;;
57331;SDS011;43164;50.908;18.092;2022-11-15T10:05:22;23.40;;;13.30;;
57331;SDS011;43164;50.908;18.092;2022-11-15T10:10:40;23.10;;;12.40;;
57331;SDS011;43164;50.908;18.092;2022-11-15T10:13:22;26.80;;;13.60;;
57331;SDS011;43164;50.908;18.092;2022-11-15T10:15:55;24.70;;;13.60;;
57331;SDS011;43164;50.908;18.092;2022-11-15T10:18:35;25.20;;;13.20;;
57331;SDS011;43164;50.908;18.092;2022-11-15T10:21:14;21.70;;;12.40;;
57331;SDS011;43164;50.908;18.092;2022-11-15T10:24:00;19.90;;;12.30;;
57331;SDS011;43164;50.908;18.092;2022-11-15T10:26:39;24.60;;;13.40;;
57331;SDS011;43164;50.908;18.092;2022-11-15T10:29:30;24.00;;;13.00;;
57331;SDS011;43164;50.908;18.092;2022-11-15T10:32:00;21.90;;;12.10;;
57331;SDS011;43164;50.908;18.092;2022-11-15T10:34:37;24.00;;;13.10;;
57331;SDS011;43164;50.908;18.092;2022-11-15T10:37:28;23.20;;;13.30;;
57331;SDS011;43164;50.908;18.092;2022-11-15T10:40:15;23.70;;;13.10;;
57331;SDS011;43164;50.908;18.092;2022-11-15T10:46:35;22.30;;;12.40;;
57331;SDS011;43164;50.908;18.092;2022-11-15T10:52:45;21.90;;;10.50;;
57331;SDS011;43164;50.908;18.092;2022-11-15T10:57:47;20.50;;;10.90;;
57331;SDS011;43164;50.908;18.092;2022-11-15T11:03:02;17.60;;;9.70;;
57331;SDS011;43164;50.908;18.092;2022-11-15T11:05:42;18.50;;;10.80;;
57331;SDS011;43164;50.908;18.092;2022-11-15T11:10:38;18.20;;;11.00;;
57331;SDS011;43164;50.908;18.092;2022-11-15T11:21:43;18.10;;;10.00;;
57331;SDS011;43164;50.908;18.092;2022-11-15T11:32:40;19.60;;;10.40;;
57331;SDS011;43164;50.908;18.092;2022-11-15T11:35:47;18.40;;;10.10;;
57331;SDS011;43164;50.908;18.092;2022-11-15T11:41:40;19.20;;;10.40;;
57331;SDS011;43164;50.908;18.092;2022-11-15T11:47:46;18.10;;;10.10;;
57331;SDS011;43164;50.908;18.092;2022-11-15T11:50:19;21.00;;;11.10;;
57331;SDS011;43164;50.908;18.092;2022-11-15T11:55:56;18.50;;;10.80;;
57331;SDS011;43164;50.908;18.092;2022-11-15T11:58:36;20.80;;;10.20;;
57331;SDS011;43164;50.908;18.092;2022-11-15T12:03:59;18.70;;;10.90;;
57331;SDS011;43164;50.908;18.092;2022-11-15T12:06:50;19.50;;;10.70;;
57331;SDS011;43164;50.908;18.092;2022-11-15T12:12:29;22.40;;;10.60;;
57331;SDS011;43164;50.908;18.092;2022-11-15T12:17:37;19.00;;;10.40;;
57331;SDS011;43164;50.908;18.092;2022-11-15T12:20:13;20.00;;;10.70;;
57331;SDS011;43164;50.908;18.092;2022-11-15T12:28:42;21.90;;;10.90;;
57331;SDS011;43164;50.908;18.092;2022-11-15T12:31:48;18.20;;;11.00;;
57331;SDS011;43164;50.908;18.092;2022-11-15T12:36:49;18.80;;;10.50;;
57331;SDS011;43164;50.908;18.092;2022-11-15T12:39:18;17.40;;;9.80;;
57331;SDS011;43164;50.908;18.092;2022-11-15T12:42:34;18.10;;;10.00;;
57331;SDS011;43164;50.908;18.092;2022-11-15T12:49:53;17.40;;;10.60;;
57331;SDS011;43164;50.908;18.092;2022-11-15T12:52:22;19.90;;;10.30;;
57331;SDS011;43164;50.908;18.092;2022-11-15T12:54:57;19.40;;;10.30;;
57331;SDS011;43164;50.908;18.092;2022-11-15T12:57:28;17.20;;;9.50;;
57331;SDS011;43164;50.908;18.092;2022-11-15T12:59:58;16.60;;;9.20;;
57331;SDS011;43164;50.908;18.092;2022-11-15T13:02:43;18.00;;;10.80;;
57331;SDS011;43164;50.908;18.092;2022-11-15T13:17:49;19.90;;;10.50;;
57331;SDS011;43164;50.908;18.092;2022-11-15T13:20:34;19.00;;;10.60;;
57331;SDS011;43164;50.908;18.092;2022-11-15T13:23:10;19.80;;;11.30;;
57331;SDS011;43164;50.908;18.092;2022-11-15T13:28:47;22.20;;;12.60;;
57331;SDS011;43164;50.908;18.092;2022-11-15T13:31:25;20.80;;;11.00;;
57331;SDS011;43164;50.908;18.092;2022-11-15T13:34:26;19.00;;;11.00;;
57331;SDS011;43164;50.908;18.092;2022-11-15T13:37:09;20.60;;;10.90;;
57331;SDS011;43164;50.908;18.092;2022-11-15T13:39:53;20.90;;;11.60;;
57331;SDS011;43164;50.908;18.092;2022-11-15T13:42:24;22.40;;;12.10;;
57331;SDS011;43164;50.908;18.092;2022-11-15T13:45:01;21.70;;;11.80;;
57331;SDS011;43164;50.908;18.092;2022-11-15T13:47:36;22.30;;;11.80;;
57331;SDS011;43164;50.908;18.092;2022-11-15T13:50:04;21.80;;;11.80;;
57331;SDS011;43164;50.908;18.092;2022-11-15T13:52:36;24.50;;;12.80;;
57331;SDS011;43164;50.908;18.092;2022-11-15T13:55:18;25.90;;;12.50;;
57331;SDS011;43164;50.908;18.092;2022-11-15T13:57:58;21.40;;;12.00;;
57331;SDS011;43164;50.908;18.092;2022-11-15T14:00:42;21.60;;;11.30;;
57331;SDS011;43164;50.908;18.092;2022-11-15T14:03:35;26.80;;;14.20;;
57331;SDS011;43164;50.908;18.092;2022-11-15T14:06:28;25.60;;;14.10;;
57331;SDS011;43164;50.908;18.092;2022-11-15T14:11:52;26.60;;;13.60;;
57331;SDS011;43164;50.908;18.092;2022-11-15T14:14:28;22.30;;;12.90;;
57331;SDS011;43164;50.908;18.092;2022-11-15T14:16:59;25.40;;;13.20;;
57331;SDS011;43164;50.908;18.092;2022-11-15T14:19:34;26.10;;;13.70;;
57331;SDS011;43164;50.908;18.092;2022-11-15T14:25:18;21.30;;;12.40;;
57331;SDS011;43164;50.908;18.092;2022-11-15T14:28:08;22.30;;;12.10;;
57331;SDS011;43164;50.908;18.092;2022-11-15T14:30:58;22.00;;;12.00;;
57331;SDS011;43164;50.908;18.092;2022-11-15T14:33:29;22.70;;;12.00;;
57331;SDS011;43164;50.908;18.092;2022-11-15T14:36:20;20.60;;;11.40;;
57331;SDS011;43164;50.908;18.092;2022-11-15T14:38:49;19.40;;;10.60;;
57331;SDS011;43164;50.908;18.092;2022-11-15T14:44:04;17.30;;;9.80;;
57331;SDS011;43164;50.908;18.092;2022-11-15T14:46:36;19.70;;;11.10;;
57331;SDS011;43164;50.908;18.092;2022-11-15T14:59:17;22.80;;;12.50;;
57331;SDS011;43164;50.908;18.092;2022-11-15T15:26:17;24.70;;;13.40;;
57331;SDS011;43164;50.908;18.092;2022-11-15T15:35:07;24.00;;;13.00;;
57331;SDS011;43164;50.908;18.092;2022-11-15T15:41:33;20.40;;;11.70;;
57331;SDS011;43164;50.908;18.092;2022-11-15T16:30:22;24.70;;;12.90;;
57331;SDS011;43164;50.908;18.092;2022-11-15T16:32:56;23.50;;;13.10;;
57331;SDS011;43164;50.908;18.092;2022-11-15T16:35:30;26.90;;;12.60;;
57331;SDS011;43164;50.908;18.092;2022-11-15T16:38:13;26.70;;;14.90;;
57331;SDS011;43164;50.908;18.092;2022-11-15T16:40:48;84.00;;;45.00;;
57331;SDS011;43164;50.908;18.092;2022-11-15T16:43:32;32.40;;;18.00;;
57331;SDS011;43164;50.908;18.092;2022-11-15T16:46:25;24.60;;;13.90;;
57331;SDS011;43164;50.908;18.092;2022-11-15T16:49:00;25.00;;;12.90;;
57331;SDS011;43164;50.908;18.092;2022-11-15T16:55:59;26.10;;;13.80;;
57331;SDS011;43164;50.908;18.092;2022-11-15T16:58:58;26.20;;;13.70;;
57331;SDS011;43164;50.908;18.092;2022-11-15T17:01:35;26.80;;;15.70;;
57331;SDS011;43164;50.908;18.092;2022-11-15T17:04:19;29.50;;;15.50;;
57331;SDS011;43164;50.908;18.092;2022-11-15T17:10:08;33.80;;;17.30;;
57331;SDS011;43164;50.908;18.092;2022-11-15T17:12:42;27.20;;;14.00;;
57331;SDS011;43164;50.908;18.092;2022-11-15T17:22:44;25.10;;;14.30;;
57331;SDS011;43164;50.908;18.092;2022-11-15T18:01:17;26.10;;;16.10;;
57331;SDS011;43164;50.908;18.092;2022-11-15T18:22:31;40.80;;;20.00;;
57331;SDS011;43164;50.908;18.092;2022-11-15T18:25:07;55.30;;;25.40;;
57331;SDS011;43164;50.908;18.092;2022-11-15T18:34:43;41.60;;;24.90;;
57331;SDS011;43164;50.908;18.092;2022-11-15T18:55:43;63.30;;;27.00;;
57331;SDS011;43164;50.908;18.092;2022-11-15T19:05:50;40.90;;;21.20;;
57331;SDS011;43164;50.908;18.092;2022-11-15T19:12:33;44.10;;;20.50;;
57331;SDS011;43164;50.908;18.092;2022-11-15T19:39:00;49.40;;;27.90;;
57331;SDS011;43164;50.908;18.092;2022-11-15T19:41:41;36.30;;;18.70;;
57331;SDS011;43164;50.908;18.092;2022-11-15T19:44:24;25.00;;;12.80;;
57331;SDS011;43164;50.908;18.092;2022-11-15T19:56:48;44.20;;;21.00;;
57331;SDS011;43164;50.908;18.092;2022-11-15T19:59:27;57.00;;;24.60;;
57331;SDS011;43164;50.908;18.092;2022-11-15T20:02:02;42.00;;;20.30;;
57331;SDS011;43164;50.908;18.092;2022-11-15T20:23:29;26.80;;;12.10;;
57331;SDS011;43164;50.908;18.092;2022-11-15T20:26:18;24.40;;;12.80;;
57331;SDS011;43164;50.908;18.092;2022-11-15T21:18:59;32.90;;;16.70;;
57331;SDS011;43164;50.908;18.092;2022-11-15T21:21:35;33.60;;;16.80;;
57331;SDS011;43164;50.908;18.092;2022-11-15T21:24:15;33.80;;;17.00;;
57331;SDS011;43164;50.908;18.092;2022-11-15T21:26:50;35.60;;;17.00;;
57331;SDS011;43164;50.908;18.092;2022-11-15T21:29:24;32.20;;;17.30;;
57331;SDS011;43164;50.908;18.092;2022-11-15T21:32:11;31.90;;;17.40;;
57331;SDS011;43164;50.908;18.092;2022-11-15T21:38:11;29.60;;;15.70;;
57331;SDS011;43164;50.908;18.092;2022-11-15T21:40:52;28.40;;;15.40;;
57331;SDS011;43164;50.908;18.092;2022-11-15T21:43:38;24.30;;;12.80;;
57331;SDS011;43164;50.908;18.092;2022-11-15T21:46:14;28.10;;;14.00;;
57331;SDS011;43164;50.908;18.092;2022-11-15T21:48:52;28.80;;;13.70;;
57331;SDS011;43164;50.908;18.092;2022-11-15T21:51:26;26.30;;;13.20;;
57331;SDS011;43164;50.908;18.092;2022-11-15T21:54:03;31.00;;;16.30;;
57331;SDS011;43164;50.908;18.092;2022-11-15T21:56:34;32.90;;;18.20;;
57331;SDS011;43164;50.908;18.092;2022-11-15T21:59:13;36.70;;;19.60;;
57331;SDS011;43164;50.908;18.092;2022-11-15T22:01:48;40.60;;;21.10;;
57331;SDS011;43164;50.908;18.092;2022-11-15T22:04:39;40.90;;;20.30;;
57331;SDS011;43164;50.908;18.092;2022-11-15T22:07:14;33.10;;;18.40;;
57331;SDS011;43164;50.908;18.092;2022-11-15T22:09:48;33.80;;;18.40;;
57331;SDS011;43164;50.908;18.092;2022-11-15T22:12:24;34.20;;;18.10;;
57331;SDS011;43164;50.908;18.092;2022-11-15T22:25:07;41.90;;;21.30;;
57331;SDS011;43164;50.908;18.092;2022-11-15T22:35:15;42.00;;;21.60;;
57331;SDS011;43164;50.908;18.092;2022-11-15T22:37:45;56.10;;;27.60;;
57331;SDS011;43164;50.908;18.092;2022-11-15T22:40:26;45.70;;;23.20;;
57331;SDS011;43164;50.908;18.092;2022-11-15T22:54:53;53.90;;;27.00;;
57331;SDS011;43164;50.908;18.092;2022-11-15T22:57:32;52.50;;;27.50;;
57331;SDS011;43164;50.908;18.092;2022-11-15T23:00:48;41.80;;;22.60;;
57331;SDS011;43164;50.908;18.092;2022-11-15T23:03:22;50.00;;;25.20;;
57331;SDS011;43164;50.908;18.092;2022-11-15T23:05:51;44.70;;;23.60;;
57331;SDS011;43164;50.908;18.092;2022-11-15T23:08:18;40.80;;;20.80;;
57331;SDS011;43164;50.908;18.092;2022-11-15T23:10:46;46.60;;;23.00;;
57331;SDS011;43164;50.908;18.092;2022-11-15T23:13:33;40.80;;;21.00;;
57331;SDS011;43164;50.908;18.092;2022-11-15T23:16:03;41.20;;;22.20;;
57331;SDS011;43164;50.908;18.092;2022-11-15T23:18:59;43.40;;;22.10;;
57331;SDS011;43164;50.908;18.092;2022-11-15T23:21:32;44.90;;;22.60;;
57331;SDS011;43164;50.908;18.092;2022-11-15T23:24:24;48.20;;;25.30;;
57331;SDS011;43164;50.908;18.092;2022-11-15T23:26:54;51.70;;;26.70;;